createdAt,value
2017-12-01T00:01:22.370Z,98826.34
2017-12-01T00:03:49.862Z,98824.26
2017-12-01T00:06:17.407Z,98822.09
2017-12-01T00:08:44.873Z,98818.68
2017-12-01T00:11:12.348Z,98819.19
2017-12-01T00:13:39.817Z,98817.91
2017-12-01T00:16:07.297Z,98821.66
2017-12-01T00:18:34.768Z,98822.06
2017-12-01T00:21:02.245Z,98829.94
2017-12-01T00:23:29.708Z,98836.98
2017-12-01T00:25:57.179Z,98830.20
2017-12-01T00:28:24.661Z,98834.38
2017-12-01T00:30:52.153Z,98825.22
2017-12-01T00:33:19.622Z,98824.44
2017-12-01T00:35:47.118Z,98821.95
2017-12-01T00:38:14.578Z,98826.61
2017-12-01T00:40:42.037Z,98823.23
2017-12-01T00:43:09.557Z,98833.26
2017-12-01T00:45:37.027Z,98839.53
2017-12-01T00:48:04.502Z,98838.66
2017-12-01T00:50:32.007Z,98840.84
2017-12-01T00:52:59.476Z,98847.53
2017-12-01T00:55:27.027Z,98845.82
2017-12-01T00:57:54.544Z,98853.35
2017-12-01T01:00:21.999Z,98855.51
2017-12-01T01:02:49.475Z,98848.69
2017-12-01T01:05:16.968Z,98850.81
2017-12-01T01:07:44.448Z,98854.14
2017-12-01T01:10:11.919Z,98860.73
2017-12-01T01:12:39.404Z,98865.01
2017-12-01T01:15:06.905Z,98867.06
2017-12-01T01:17:34.423Z,98872.25
2017-12-01T01:20:01.925Z,98871.66
2017-12-01T01:22:29.402Z,98865.42
2017-12-01T01:24:56.884Z,98865.48
2017-12-01T01:27:24.495Z,98866.26
2017-12-01T01:29:51.960Z,98872.66
2017-12-01T01:32:20.171Z,98871.20
2017-12-01T01:34:47.640Z,98871.56
2017-12-01T01:37:15.880Z,98876.00
2017-12-01T01:39:43.432Z,98869.60
2017-12-01T01:42:10.911Z,98869.52
2017-12-01T01:44:38.403Z,98862.56
2017-12-01T01:47:05.880Z,98861.52
2017-12-01T01:49:33.348Z,98869.03
2017-12-01T01:52:00.873Z,98867.21
2017-12-01T01:54:28.360Z,98866.28
2017-12-01T01:56:55.838Z,98863.23
2017-12-01T01:59:23.354Z,98868.27
2017-12-01T02:01:50.831Z,98867.87
2017-12-01T02:04:18.331Z,98863.59
2017-12-01T02:06:45.885Z,98872.00
2017-12-01T02:09:13.328Z,98876.55
2017-12-01T02:11:40.810Z,98881.45
2017-12-01T02:14:08.354Z,98885.47
2017-12-01T02:16:35.820Z,98892.23
2017-12-01T02:19:03.334Z,98891.86
2017-12-01T02:21:30.854Z,98893.97
2017-12-01T02:23:58.343Z,98895.91
2017-12-01T02:26:25.818Z,98897.98
2017-12-01T02:28:53.275Z,98897.47
2017-12-01T02:31:20.778Z,98898.56
2017-12-01T02:33:48.247Z,98896.41
2017-12-01T02:36:15.723Z,98903.82
2017-12-01T02:38:43.225Z,98909.27
2017-12-01T02:41:10.670Z,98907.20
2017-12-01T02:43:38.156Z,98912.20
2017-12-01T02:46:05.640Z,98919.72
2017-12-01T02:48:33.116Z,98918.09
2017-12-01T02:51:00.612Z,98920.25
2017-12-01T02:53:28.087Z,98917.28
2017-12-01T02:55:55.590Z,98924.80
2017-12-01T02:58:23.142Z,98922.69
2017-12-01T03:00:50.624Z,98920.44
2017-12-01T03:03:18.170Z,98923.97
2017-12-01T03:05:45.653Z,98926.69
2017-12-01T03:08:13.299Z,98919.26
2017-12-01T03:10:40.758Z,98914.81
2017-12-01T03:13:08.234Z,98921.09
2017-12-01T03:15:35.711Z,98928.72
2017-12-01T03:18:03.233Z,98929.51
2017-12-01T03:20:30.717Z,98937.43
2017-12-01T03:22:58.194Z,98933.55
2017-12-01T03:25:25.682Z,98935.58
2017-12-01T03:27:53.196Z,98936.83
2017-12-01T03:30:20.715Z,98939.41
2017-12-01T03:32:48.183Z,98939.03
2017-12-01T03:35:15.647Z,98948.22
2017-12-01T03:37:43.129Z,98960.32
2017-12-01T03:40:10.622Z,98958.52
2017-12-01T03:42:38.102Z,98959.20
2017-12-01T03:45:05.576Z,98944.12
2017-12-01T03:47:33.047Z,98958.31
2017-12-01T03:50:00.523Z,98961.97
2017-12-01T03:52:28.016Z,98962.74
2017-12-01T03:54:55.519Z,98963.13
2017-12-01T03:57:22.973Z,98969.38
2017-12-01T03:59:50.494Z,98974.16
2017-12-01T04:02:17.966Z,98969.89
2017-12-01T04:04:45.443Z,98975.57
2017-12-01T04:07:12.923Z,98983.41
2017-12-01T04:09:40.375Z,98986.27
2017-12-01T04:12:07.868Z,98985.92
2017-12-01T04:14:35.343Z,98984.73
2017-12-01T04:17:02.806Z,98981.27
2017-12-01T04:19:30.266Z,98979.82
2017-12-01T04:21:57.730Z,98974.73
2017-12-01T04:24:25.210Z,98975.05
2017-12-01T04:26:52.717Z,98976.08
2017-12-01T04:29:20.199Z,98980.59
2017-12-01T04:31:47.664Z,98984.06
2017-12-01T04:34:15.163Z,98988.16
2017-12-01T04:36:42.652Z,98987.33
2017-12-01T04:39:10.832Z,99000.51
2017-12-01T04:41:38.346Z,98996.02
2017-12-01T04:44:05.803Z,99010.46
2017-12-01T04:46:33.293Z,99002.64
2017-12-01T04:49:00.767Z,99014.22
2017-12-01T04:51:28.252Z,99017.42
2017-12-01T04:53:55.786Z,99018.52
2017-12-01T04:56:23.258Z,99017.55
2017-12-01T04:58:50.727Z,99023.81
2017-12-01T05:01:18.208Z,99029.62
2017-12-01T05:03:45.682Z,99026.22
2017-12-01T05:06:13.192Z,99026.93
2017-12-01T05:08:40.656Z,99032.30
2017-12-01T05:11:08.144Z,99029.72
2017-12-01T05:13:35.647Z,99031.42
2017-12-01T05:16:03.120Z,99034.81
2017-12-01T05:18:30.615Z,99029.70
2017-12-01T05:20:58.114Z,99031.25
2017-12-01T05:23:25.627Z,99043.34
2017-12-01T05:25:53.161Z,99051.72
2017-12-01T05:28:23.314Z,99058.84
2017-12-01T05:30:50.772Z,99062.94
2017-12-01T05:33:18.247Z,99064.40
2017-12-01T05:35:45.761Z,99070.50
2017-12-01T05:38:13.240Z,99082.45
2017-12-01T05:40:40.732Z,99083.09
2017-12-01T05:43:08.223Z,99087.85
2017-12-01T05:45:35.696Z,99085.41
2017-12-01T05:48:03.176Z,99084.48
2017-12-01T05:50:30.700Z,99084.73
2017-12-01T05:52:58.170Z,99089.69
2017-12-01T05:55:25.646Z,99094.13
2017-12-01T05:57:53.136Z,99096.08
2017-12-01T06:00:20.622Z,99100.13
2017-12-01T06:02:48.099Z,99106.14
2017-12-01T06:05:15.609Z,99104.23
2017-12-01T06:07:43.095Z,99110.07
2017-12-01T06:10:10.571Z,99120.05
2017-12-01T06:12:38.058Z,99124.10
2017-12-01T06:15:05.527Z,99123.63
2017-12-01T06:17:32.996Z,99127.47
2017-12-01T06:20:00.516Z,99126.52
2017-12-01T06:22:27.971Z,99128.48
2017-12-01T06:24:55.512Z,99132.97
2017-12-01T06:27:23.104Z,99141.03
2017-12-01T06:29:50.579Z,99143.30
2017-12-01T06:32:18.082Z,99148.63
2017-12-01T06:34:45.562Z,99161.44
2017-12-01T06:37:13.024Z,99165.83
2017-12-01T06:39:40.532Z,99171.21
2017-12-01T06:42:08.019Z,99175.73
2017-12-01T06:44:35.547Z,99176.82
2017-12-01T06:47:03.022Z,99179.50
2017-12-01T06:49:30.492Z,99181.48
2017-12-01T06:51:57.965Z,99189.19
2017-12-01T06:54:25.492Z,99180.63
2017-12-01T06:56:53.015Z,99189.47
2017-12-01T06:59:20.478Z,99202.95
2017-12-01T07:01:48.719Z,99208.12
2017-12-01T07:04:16.267Z,99204.16
2017-12-01T07:06:43.759Z,99211.76
2017-12-01T07:09:17.581Z,99220.27
2017-12-01T07:11:45.497Z,99212.75
2017-12-01T07:14:13.849Z,99206.69
2017-12-01T07:16:41.891Z,99211.27
2017-12-01T07:19:09.999Z,99217.13
2017-12-01T07:21:40.885Z,99221.24
2017-12-01T07:24:10.985Z,99224.59
2017-12-01T07:26:50.951Z,99222.61
2017-12-01T07:29:19.466Z,99222.16
2017-12-01T07:31:48.760Z,99220.16
2017-12-01T07:34:18.108Z,99219.41
2017-12-01T07:36:45.610Z,99219.07
2017-12-01T07:39:13.066Z,99221.27
2017-12-01T07:41:40.578Z,99223.86
2017-12-01T07:44:18.148Z,99225.14
2017-12-01T07:46:45.691Z,99233.63
2017-12-01T07:49:13.137Z,99240.47
2017-12-01T07:51:40.607Z,99240.08
2017-12-01T07:54:08.102Z,99244.04
2017-12-01T07:56:35.587Z,99248.63
2017-12-01T07:59:03.090Z,99248.73
2017-12-01T08:01:30.592Z,99243.25
2017-12-01T08:03:58.048Z,99240.39
2017-12-01T08:06:25.527Z,99240.18
2017-12-01T08:08:52.987Z,99241.20
2017-12-01T08:11:20.512Z,99244.13
2017-12-01T08:13:47.995Z,99244.13
2017-12-01T08:16:27.108Z,99253.83
2017-12-01T08:19:02.475Z,99257.27
2017-12-01T08:21:41.734Z,99257.80
2017-12-01T08:24:21.335Z,99256.69
2017-12-01T08:26:48.836Z,99261.40
2017-12-01T08:29:16.312Z,99251.00
2017-12-01T08:31:43.814Z,99256.60
2017-12-01T08:34:11.312Z,99253.44
2017-12-01T08:36:38.764Z,99253.96
2017-12-01T08:39:06.218Z,99257.05
2017-12-01T08:41:33.759Z,99264.23
2017-12-01T08:44:01.236Z,99266.86
2017-12-01T08:46:28.698Z,99269.54
2017-12-01T08:48:56.199Z,99278.03
2017-12-01T08:51:23.669Z,99282.38
2017-12-01T08:53:51.151Z,99283.83
2017-12-01T08:56:18.708Z,99283.63
2017-12-01T08:58:46.125Z,99282.12
2017-12-01T09:01:13.598Z,99285.66
2017-12-01T09:03:41.052Z,99289.20
2017-12-01T09:06:08.531Z,99286.11
2017-12-01T09:08:35.979Z,99282.86
2017-12-01T09:11:03.446Z,99283.83
2017-12-01T09:13:30.971Z,99290.60
2017-12-01T09:15:58.458Z,99293.04
2017-12-01T09:18:25.925Z,99293.55
2017-12-01T09:20:53.381Z,99293.67
2017-12-01T09:23:20.920Z,99286.62
2017-12-01T09:25:48.381Z,99290.46
2017-12-01T09:28:15.847Z,99296.52
2017-12-01T09:30:43.351Z,99294.49
2017-12-01T09:33:10.831Z,99302.20
2017-12-01T09:35:38.303Z,99290.97
2017-12-01T09:38:05.795Z,99293.95
2017-12-01T09:40:33.333Z,99290.20
2017-12-01T09:43:00.812Z,99291.87
2017-12-01T09:45:28.261Z,99296.08
2017-12-01T09:47:55.720Z,99292.30
2017-12-01T09:50:23.184Z,99285.57
2017-12-01T09:52:50.712Z,99284.68
2017-12-01T09:55:18.192Z,99291.38
2017-12-01T09:57:45.664Z,99292.23
2017-12-01T10:00:13.185Z,99293.96
2017-12-01T10:02:40.706Z,99292.66
2017-12-01T10:05:08.152Z,99297.80
2017-12-01T10:07:35.620Z,99298.25
2017-12-01T10:10:03.096Z,99305.45
2017-12-01T10:12:30.563Z,99305.52
2017-12-01T10:14:58.021Z,99301.30
2017-12-01T10:17:25.502Z,99303.47
2017-12-01T10:19:52.950Z,99301.00
2017-12-01T10:22:20.417Z,99306.92
2017-12-01T10:24:47.875Z,99301.02
2017-12-01T10:27:15.406Z,99307.78
2017-12-01T10:29:42.915Z,99305.27
2017-12-01T10:32:10.376Z,99305.30
2017-12-01T10:34:37.840Z,99307.41
2017-12-01T10:37:05.318Z,99302.78
2017-12-01T10:39:32.767Z,99302.42
2017-12-01T10:42:00.227Z,99303.28
2017-12-01T10:44:27.671Z,99304.58
2017-12-01T10:46:55.135Z,99305.44
2017-12-01T10:49:22.650Z,99305.05
2017-12-01T10:51:50.104Z,99295.32
2017-12-01T10:54:17.568Z,99299.11
2017-12-01T10:56:45.042Z,99296.56
2017-12-01T10:59:12.521Z,99296.16
2017-12-01T11:01:39.984Z,99307.18
2017-12-01T11:04:07.479Z,99306.77
2017-12-01T11:06:34.954Z,99309.66
2017-12-01T11:09:02.412Z,99312.19
2017-12-01T11:11:29.905Z,99317.30
2017-12-01T11:13:57.366Z,99314.34
2017-12-01T11:16:24.825Z,99313.95
2017-12-01T11:18:52.299Z,99310.16
2017-12-01T11:21:19.743Z,99310.60
2017-12-01T11:23:47.205Z,99309.34
2017-12-01T11:26:14.720Z,99305.11
2017-12-01T11:28:42.175Z,99303.00
2017-12-01T11:31:09.637Z,99305.55
2017-12-01T11:33:37.095Z,99300.08
2017-12-01T11:36:04.550Z,99301.76
2017-12-01T11:38:31.999Z,99297.94
2017-12-01T11:40:59.470Z,99305.98
2017-12-01T11:43:26.986Z,99308.95
2017-12-01T11:45:54.480Z,99310.22
2017-12-01T11:48:21.962Z,99307.27
2017-12-01T11:50:49.428Z,99302.59
2017-12-01T11:53:16.897Z,99317.80
2017-12-01T11:55:44.376Z,99314.41
2017-12-01T11:58:11.830Z,99302.19
2017-12-01T12:00:40.903Z,99312.75
2017-12-01T12:03:08.367Z,99310.65
2017-12-01T12:05:36.114Z,99308.52
2017-12-01T12:08:03.573Z,99325.87
2017-12-01T12:10:31.036Z,99319.56
2017-12-01T12:12:58.505Z,99316.17
2017-12-01T12:15:25.968Z,99321.23
2017-12-01T12:17:53.430Z,99324.20
2017-12-01T12:20:20.886Z,99325.47
2017-12-01T12:22:48.347Z,99330.97
2017-12-01T12:25:15.818Z,99331.36
2017-12-01T12:27:43.318Z,99329.27
2017-12-01T12:30:10.816Z,99331.79
2017-12-01T12:32:38.311Z,99329.67
2017-12-01T12:35:05.767Z,99335.59
2017-12-01T12:37:33.221Z,99338.55
2017-12-01T12:40:00.682Z,99340.67
2017-12-01T12:42:28.151Z,99340.67
2017-12-01T12:44:55.607Z,99327.97
2017-12-01T12:47:23.135Z,99341.47
2017-12-01T12:49:50.744Z,99334.73
2017-12-01T12:52:18.191Z,99338.91
2017-12-01T12:54:45.660Z,99340.63
2017-12-01T12:57:13.156Z,99342.73
2017-12-01T12:59:40.611Z,99345.69
2017-12-01T13:02:08.092Z,99342.73
2017-12-01T13:04:35.650Z,99346.48
2017-12-01T13:07:03.118Z,99351.08
2017-12-01T13:09:30.663Z,99354.80
2017-12-01T13:11:58.131Z,99353.84
2017-12-01T13:14:25.610Z,99357.58
2017-12-01T13:16:53.077Z,99360.61
2017-12-01T13:19:20.578Z,99351.73
2017-12-01T13:21:48.069Z,99352.23
2017-12-01T13:24:15.605Z,99358.58
2017-12-01T13:26:43.103Z,99359.42
2017-12-01T13:29:10.584Z,99360.23
2017-12-01T13:31:38.076Z,99363.61
2017-12-01T13:34:05.672Z,99367.00
2017-12-01T13:36:33.152Z,99369.53
2017-12-01T13:39:00.615Z,99372.86
2017-12-01T13:41:28.101Z,99380.88
2017-12-01T13:43:55.558Z,99373.27
2017-12-01T13:46:23.803Z,99378.27
2017-12-01T13:48:51.269Z,99382.88
2017-12-01T13:51:18.831Z,99389.19
2017-12-01T13:53:46.302Z,99391.86
2017-12-01T13:56:13.847Z,99390.69
2017-12-01T13:58:41.320Z,99389.91
2017-12-01T14:01:08.869Z,99398.06
2017-12-01T14:03:36.314Z,99405.79
2017-12-01T14:06:03.785Z,99407.53
2017-12-01T14:08:31.263Z,99406.33
2017-12-01T14:10:58.748Z,99405.06
2017-12-01T14:13:26.227Z,99408.05
2017-12-01T14:15:53.701Z,99409.31
2017-12-01T14:18:21.294Z,99406.77
2017-12-01T14:20:48.740Z,99402.12
2017-12-01T14:23:16.210Z,99408.02
2017-12-01T14:25:43.672Z,99413.50
2017-12-01T14:28:11.176Z,99412.60
2017-12-01T14:30:38.645Z,99420.95
2017-12-01T14:33:06.096Z,99425.35
2017-12-01T14:35:33.571Z,99431.16
2017-12-01T14:38:01.081Z,99433.95
2017-12-01T14:40:28.666Z,99432.08
2017-12-01T14:42:56.139Z,99430.11
2017-12-01T14:45:23.627Z,99447.86
2017-12-01T14:47:51.125Z,99442.42
2017-12-01T14:50:19.283Z,99440.01
2017-12-01T14:52:46.764Z,99435.97
2017-12-01T14:55:14.288Z,99442.77
2017-12-01T14:57:41.753Z,99448.50
2017-12-01T15:00:09.232Z,99451.72
2017-12-01T15:02:36.748Z,99452.04
2017-12-01T15:05:04.208Z,99456.06
2017-12-01T15:07:31.676Z,99458.76
2017-12-01T15:09:59.116Z,99461.08
2017-12-01T15:12:26.600Z,99466.42
2017-12-01T15:14:54.071Z,99466.41
2017-12-01T15:17:21.561Z,99471.62
2017-12-01T15:19:49.052Z,99480.28
2017-12-01T15:22:16.618Z,99489.73
2017-12-01T15:24:44.105Z,99492.88
2017-12-01T15:27:12.514Z,99489.50
2017-12-01T15:29:39.996Z,99503.41
2017-12-01T15:32:07.497Z,99503.01
2017-12-01T15:34:34.999Z,99507.05
2017-12-01T15:37:02.455Z,99514.38
2017-12-01T15:39:29.932Z,99528.98
2017-12-01T15:41:57.454Z,99524.70
2017-12-01T15:44:24.927Z,99523.86
2017-12-01T15:46:52.417Z,99524.03
2017-12-01T15:49:20.871Z,99532.61
2017-12-01T15:51:48.340Z,99532.38
2017-12-01T15:54:15.863Z,99537.27
2017-12-01T15:56:43.341Z,99544.20
2017-12-01T15:59:10.855Z,99543.80
2017-12-01T16:01:38.341Z,99555.82
2017-12-01T16:04:05.898Z,99556.38
2017-12-01T16:06:33.419Z,99559.67
2017-12-01T16:09:00.911Z,99567.83
2017-12-01T16:11:28.407Z,99568.77
2017-12-01T16:13:55.932Z,99577.95
2017-12-01T16:16:23.412Z,99577.22
2017-12-01T16:18:50.982Z,99578.48
2017-12-01T16:21:18.572Z,99576.53
2017-12-01T16:23:46.171Z,99580.89
2017-12-01T16:26:13.713Z,99584.29
2017-12-01T16:28:41.211Z,99586.85
2017-12-01T16:31:08.753Z,99592.41
2017-12-01T16:33:36.374Z,99597.98
2017-12-01T16:36:03.857Z,99606.11
2017-12-01T16:38:31.336Z,99604.13
2017-12-01T16:40:58.812Z,99602.29
2017-12-01T16:43:26.329Z,99599.34
2017-12-01T16:45:54.910Z,99599.91
2017-12-01T16:48:22.431Z,99605.61
2017-12-01T16:50:50.254Z,99604.16
2017-12-01T16:53:17.730Z,99607.41
2017-12-01T16:55:45.242Z,99606.34
2017-12-01T16:58:12.733Z,99614.84
2017-12-01T17:00:40.314Z,99610.03
2017-12-01T17:03:08.414Z,99611.49
2017-12-01T17:05:35.962Z,99613.58
2017-12-01T17:08:03.502Z,99619.83
2017-12-01T17:10:31.065Z,99621.72
2017-12-01T17:12:58.561Z,99616.86
2017-12-01T17:15:26.019Z,99622.64
2017-12-01T17:17:53.516Z,99630.83
2017-12-01T17:20:21.115Z,99626.19
2017-12-01T17:22:48.636Z,99626.83
2017-12-01T17:25:16.146Z,99631.70
2017-12-01T17:27:43.689Z,99632.86
2017-12-01T17:30:11.184Z,99632.49
2017-12-01T17:32:38.708Z,99645.84
2017-12-01T17:35:06.188Z,99646.20
2017-12-01T17:37:33.639Z,99642.42
2017-12-01T17:40:01.149Z,99643.03
2017-12-01T17:42:28.640Z,99640.28
2017-12-01T17:44:56.100Z,99643.39
2017-12-01T17:47:23.587Z,99656.16
2017-12-01T17:49:51.104Z,99655.20
2017-12-01T17:52:18.604Z,99655.92
2017-12-01T17:54:46.059Z,99657.56
2017-12-01T17:57:14.539Z,99654.30
2017-12-01T17:59:42.040Z,99660.31
2017-12-01T18:02:09.595Z,99657.58
2017-12-01T18:04:37.079Z,99661.38
2017-12-01T18:07:04.555Z,99656.97
2017-12-01T18:09:32.035Z,99657.05
2017-12-01T18:11:59.534Z,99662.53
2017-12-01T18:14:27.003Z,99659.89
2017-12-01T18:16:54.509Z,99659.14
2017-12-01T18:19:21.992Z,99666.61
2017-12-01T18:21:49.515Z,99667.19
2017-12-01T18:24:16.987Z,99661.94
2017-12-01T18:26:44.551Z,99669.80
2017-12-01T18:29:12.037Z,99670.59
2017-12-01T18:31:39.527Z,99665.53
2017-12-01T18:34:07.083Z,99677.83
2017-12-01T18:36:34.585Z,99675.59
2017-12-01T18:39:02.085Z,99673.13
2017-12-01T18:41:29.559Z,99677.33
2017-12-01T18:43:57.060Z,99680.31
2017-12-01T18:46:24.530Z,99689.84
2017-12-01T18:48:52.035Z,99683.72
2017-12-01T18:51:19.527Z,99686.45
2017-12-01T18:53:47.024Z,99683.99
2017-12-01T18:56:14.512Z,99689.80
2017-12-01T18:58:42.010Z,99686.36
2017-12-01T19:01:09.480Z,99699.00
2017-12-01T19:03:36.986Z,99697.92
2017-12-01T19:06:04.455Z,99700.59
2017-12-01T19:08:31.966Z,99705.70
2017-12-01T19:10:59.457Z,99712.69
2017-12-01T19:13:27.013Z,99720.52
2017-12-01T19:15:54.478Z,99717.22
2017-12-01T19:18:22.066Z,99714.50
2017-12-01T19:20:49.600Z,99715.77
2017-12-01T19:23:17.125Z,99718.28
2017-12-01T19:25:44.637Z,99720.66
2017-12-01T19:28:12.164Z,99729.83
2017-12-01T19:30:39.689Z,99733.43
2017-12-01T19:33:07.253Z,99736.08
2017-12-01T19:35:34.769Z,99743.21
2017-12-01T19:38:02.252Z,99742.58
2017-12-01T19:40:29.837Z,99740.47
2017-12-01T19:42:57.357Z,99746.48
2017-12-01T19:45:24.823Z,99751.24
2017-12-01T19:47:52.312Z,99755.47
2017-12-01T19:50:19.816Z,99759.14
2017-12-01T19:52:47.316Z,99756.43
2017-12-01T19:55:14.834Z,99760.38
2017-12-01T19:57:42.319Z,99761.33
2017-12-01T20:00:09.874Z,99763.70
2017-12-01T20:02:37.377Z,99772.02
2017-12-01T20:05:04.865Z,99767.19
2017-12-01T20:07:32.384Z,99782.13
2017-12-01T20:09:59.858Z,99779.35
2017-12-01T20:12:27.359Z,99783.04
2017-12-01T20:14:54.844Z,99783.02
2017-12-01T20:17:22.355Z,99786.08
2017-12-01T20:19:50.093Z,99785.99
2017-12-01T20:22:17.601Z,99789.77
2017-12-01T20:24:45.064Z,99798.83
2017-12-01T20:27:12.567Z,99802.41
2017-12-01T20:29:40.095Z,99801.48
2017-12-01T20:32:07.568Z,99806.64
2017-12-01T20:34:35.199Z,99804.95
2017-12-01T20:37:02.699Z,99817.75
2017-12-01T20:39:30.241Z,99818.83
2017-12-01T20:41:57.720Z,99819.97
2017-12-01T20:44:25.265Z,99822.18
2017-12-01T20:46:52.746Z,99822.61
2017-12-01T20:49:20.256Z,99819.59
2017-12-01T20:51:47.753Z,99823.34
2017-12-01T20:54:15.268Z,99822.29
2017-12-01T20:56:42.831Z,99833.02
2017-12-01T20:59:10.314Z,99836.36
2017-12-01T21:01:37.806Z,99836.41
2017-12-01T21:04:05.376Z,99842.68
2017-12-01T21:06:32.869Z,99848.79
2017-12-01T21:09:00.350Z,99844.40
2017-12-01T21:11:27.862Z,99847.55
2017-12-01T21:13:55.350Z,99845.53
2017-12-01T21:16:24.582Z,99856.25
2017-12-01T21:18:52.116Z,99861.62
2017-12-01T21:21:22.910Z,99856.22
2017-12-01T21:39:55.729Z,99850.44
2017-12-01T21:42:23.734Z,99856.97
2017-12-01T21:44:51.227Z,99854.39
2017-12-01T21:47:18.723Z,99854.73
2017-12-01T21:49:46.211Z,99866.09
2017-12-01T21:52:13.706Z,99868.44
2017-12-01T21:54:41.190Z,99864.41
2017-12-01T21:57:09.165Z,99862.36
2017-12-01T21:59:36.895Z,99870.50
2017-12-01T22:02:04.407Z,99869.02
2017-12-01T22:04:32.486Z,99874.86
2017-12-01T22:06:59.988Z,99870.70
2017-12-01T22:09:27.467Z,99864.08
2017-12-01T22:11:54.945Z,99862.98
2017-12-01T22:14:22.542Z,99870.03
2017-12-01T22:16:50.025Z,99861.23
2017-12-01T22:19:17.511Z,99864.17
2017-12-01T22:21:45.047Z,99865.92
2017-12-01T22:24:12.525Z,99868.18
2017-12-01T22:29:13.641Z,99872.29
2017-12-01T22:31:41.135Z,99874.02
2017-12-01T22:34:08.647Z,99874.23
2017-12-01T22:36:36.418Z,99874.64
2017-12-01T22:39:04.001Z,99863.59
2017-12-01T22:44:03.638Z,99866.83
2017-12-01T22:46:31.142Z,99876.97
2017-12-01T22:48:58.622Z,99882.62
2017-12-01T22:51:26.106Z,99887.55
2017-12-01T22:53:53.649Z,99883.84
2017-12-01T22:56:21.142Z,99885.48
2017-12-01T22:58:48.604Z,99879.42
2017-12-01T23:01:16.147Z,99879.69
2017-12-01T23:03:43.639Z,99879.10
2017-12-01T23:06:11.174Z,99877.08
2017-12-01T23:08:38.656Z,99876.62
2017-12-01T23:11:06.110Z,99878.94
2017-12-01T23:13:33.561Z,99882.91
2017-12-01T23:16:01.028Z,99882.08
2017-12-01T23:18:28.515Z,99886.72
2017-12-01T23:20:56.063Z,99892.51
2017-12-01T23:23:23.588Z,99894.92
2017-12-01T23:25:53.589Z,99893.20
2017-12-01T23:28:21.075Z,99889.20
2017-12-01T23:30:48.942Z,99883.24
2017-12-01T23:33:16.464Z,99891.28
2017-12-01T23:35:43.960Z,99890.95
2017-12-01T23:38:11.417Z,99889.56
2017-12-01T23:40:39.355Z,99893.00
2017-12-01T23:43:07.379Z,99891.05
2017-12-01T23:45:36.413Z,99882.64
2017-12-01T23:48:04.792Z,99881.84
2017-12-01T23:50:32.261Z,99889.48
2017-12-01T23:52:59.782Z,99886.81
2017-12-01T23:55:27.267Z,99889.11
2017-12-01T23:57:54.812Z,99881.77
